createdAt,value
2022-10-18T00:00:07.261Z,97096.91
2022-10-18T00:02:33.835Z,97099.41
2022-10-18T00:05:00.443Z,97104.81
2022-10-18T00:07:26.829Z,97096.25
2022-10-18T00:09:53.225Z,97093.75
2022-10-18T00:12:19.612Z,97101.53
2022-10-18T00:14:48.182Z,97092.44
2022-10-18T00:17:14.589Z,97090.31
2022-10-18T00:19:40.952Z,97082.03
2022-10-18T00:22:07.350Z,97085.84
2022-10-18T00:24:33.714Z,97086.97
2022-10-18T00:27:00.088Z,97084.66
2022-10-18T00:29:26.490Z,97081.06
2022-10-18T00:31:52.874Z,97075.28
2022-10-18T00:34:19.252Z,97082.03
2022-10-18T00:36:45.845Z,97079.56
2022-10-18T00:39:15.679Z,97079.72
2022-10-18T00:41:42.228Z,97069.16
2022-10-18T00:44:11.602Z,97070.34
2022-10-18T00:46:39.222Z,97070.50
2022-10-18T00:49:07.903Z,97073.31
2022-10-18T00:51:38.359Z,97073.44
2022-10-18T00:54:04.884Z,97073.59
2022-10-18T00:56:33.308Z,97079.22
2022-10-18T00:58:59.820Z,97066.19
2022-10-18T01:01:28.389Z,97064.56
2022-10-18T01:03:55.899Z,97052.66
2022-10-18T01:06:23.012Z,97061.25
2022-10-18T01:09:04.760Z,97059.59
2022-10-18T01:11:44.310Z,97048.69
2022-10-18T01:14:25.921Z,97046.38
2022-10-18T01:16:58.557Z,97050.31
2022-10-18T01:19:38.753Z,97040.44
2022-10-18T01:22:15.015Z,97048.00
2022-10-18T01:24:53.660Z,97045.53
2022-10-18T01:27:33.715Z,97042.72
2022-10-18T01:30:12.058Z,97047.69
2022-10-18T01:32:44.794Z,97042.72
2022-10-18T01:35:14.141Z,97034.47
2022-10-18T01:37:41.949Z,97035.94
2022-10-18T01:40:09.276Z,97033.47
2022-10-18T01:42:35.655Z,97038.91
2022-10-18T01:45:03.580Z,97036.44
2022-10-18T01:47:31.147Z,97020.63
2022-10-18T01:50:02.938Z,97020.28
2022-10-18T01:52:29.664Z,97019.63
2022-10-18T01:54:56.884Z,97023.59
2022-10-18T01:57:32.369Z,97014.19
2022-10-18T02:00:04.757Z,97021.41
2022-10-18T02:02:40.304Z,97015.34
2022-10-18T02:05:17.850Z,97003.81
2022-10-18T02:08:12.686Z,97004.47
2022-10-18T02:10:50.474Z,97000.84
2022-10-18T02:13:19.076Z,97000.16
2022-10-18T02:15:47.300Z,97002.81
2022-10-18T02:18:17.885Z,96999.53
2022-10-18T02:20:45.577Z,96997.19
2022-10-18T02:23:13.883Z,97002.63
2022-10-18T02:25:40.698Z,97002.28
2022-10-18T02:28:07.174Z,97003.13
2022-10-18T02:30:37.542Z,97000.66
2022-10-18T02:33:12.954Z,97002.63
2022-10-18T02:35:46.842Z,97006.25
2022-10-18T02:38:14.585Z,96988.78
2022-10-18T02:40:40.990Z,96991.41
2022-10-18T02:43:07.381Z,96992.41
2022-10-18T02:45:33.846Z,96986.31
2022-10-18T02:48:00.229Z,96983.84
2022-10-18T02:50:26.630Z,96991.91
2022-10-18T02:52:53.066Z,96992.41
2022-10-18T02:55:19.759Z,96990.78
2022-10-18T02:57:46.201Z,96984.66
2022-10-18T03:00:12.884Z,96983.69
2022-10-18T03:02:39.271Z,96987.97
2022-10-18T03:05:05.760Z,96983.00
2022-10-18T03:07:32.455Z,96980.53
2022-10-18T03:09:59.002Z,96981.69
2022-10-18T03:12:25.382Z,96977.56
2022-10-18T03:14:51.754Z,96991.56
2022-10-18T03:17:18.150Z,96981.19
2022-10-18T03:19:44.518Z,96985.63
2022-10-18T03:22:10.889Z,96987.28
2022-10-18T03:24:37.307Z,96977.72
2022-10-18T03:27:03.794Z,96978.38
2022-10-18T03:29:30.185Z,96981.03
2022-10-18T03:31:56.551Z,96976.59
2022-10-18T03:34:22.948Z,96980.03
2022-10-18T03:36:49.350Z,96980.88
2022-10-18T03:39:15.805Z,96976.44
2022-10-18T03:41:42.164Z,96988.59
2022-10-18T03:44:08.610Z,96981.38
2022-10-18T03:46:35.005Z,96976.09
2022-10-18T03:49:01.405Z,96978.56
2022-10-18T03:51:27.771Z,96985.63
2022-10-18T03:53:54.142Z,96981.03
2022-10-18T03:56:20.548Z,96981.88
2022-10-18T03:58:46.928Z,96980.72
2022-10-18T04:01:13.363Z,96986.16
2022-10-18T04:03:39.770Z,96977.59
2022-10-18T04:06:07.879Z,96969.53
2022-10-18T04:08:34.260Z,96975.78
2022-10-18T04:11:04.352Z,96979.41
2022-10-18T04:13:30.733Z,96969.84
2022-10-18T04:15:57.111Z,96969.03
2022-10-18T04:18:23.474Z,96965.22
2022-10-18T04:20:49.865Z,96961.47
2022-10-18T04:23:16.230Z,96962.13
2022-10-18T04:28:10.146Z,96949.94
2022-10-18T04:30:36.501Z,96962.44
2022-10-18T04:33:02.958Z,96956.66
2022-10-18T04:35:29.375Z,96958.50
2022-10-18T04:37:55.788Z,96952.38
2022-10-18T04:40:22.221Z,96952.22
2022-10-18T04:42:48.623Z,96953.22
2022-10-18T04:45:14.996Z,96953.38
2022-10-18T04:47:41.374Z,96952.88
2022-10-18T04:50:07.958Z,96944.31
2022-10-18T04:52:34.310Z,96943.47
2022-10-18T04:55:00.688Z,96946.09
2022-10-18T04:57:27.100Z,96947.44
2022-10-18T04:59:53.627Z,96944.63
2022-10-18T05:02:20.022Z,96943.78
2022-10-18T05:04:46.440Z,96941.16
2022-10-18T05:07:12.860Z,96946.44
2022-10-18T05:09:39.260Z,96946.25
2022-10-18T05:12:05.723Z,96944.47
2022-10-18T05:14:32.133Z,96946.09
2022-10-18T05:16:58.583Z,96942.00
2022-10-18T05:19:24.948Z,96951.72
2022-10-18T05:21:51.468Z,96947.44
2022-10-18T05:24:17.852Z,96948.41
2022-10-18T05:26:44.226Z,96944.13
2022-10-18T05:29:10.757Z,96950.72
2022-10-18T05:31:37.219Z,96957.66
2022-10-18T05:34:03.731Z,96955.19
2022-10-18T05:36:30.198Z,96957.31
2022-10-18T05:38:59.645Z,96955.97
2022-10-18T05:41:28.932Z,96949.56
2022-10-18T05:43:55.366Z,96952.03
2022-10-18T05:46:21.741Z,96958.66
2022-10-18T05:48:50.052Z,96960.28
2022-10-18T05:51:16.685Z,96962.59
2022-10-18T05:53:43.058Z,96959.97
2022-10-18T05:56:11.855Z,96959.81
2022-10-18T05:58:38.941Z,96960.97
2022-10-18T06:01:05.906Z,96965.91
2022-10-18T06:03:32.562Z,96959.16
2022-10-18T06:06:02.672Z,96959.16
2022-10-18T06:08:29.103Z,96964.56
2022-10-18T06:10:55.567Z,96959.28
2022-10-18T06:13:21.979Z,96965.75
2022-10-18T06:15:48.373Z,96970.69
2022-10-18T06:18:14.747Z,96966.25
2022-10-18T06:20:41.143Z,96967.59
2022-10-18T06:23:07.530Z,96966.41
2022-10-18T06:25:33.912Z,96966.41
2022-10-18T06:28:00.286Z,96965.63
2022-10-18T06:30:26.656Z,96962.97
2022-10-18T06:32:53.032Z,96958.34
2022-10-18T06:35:19.407Z,96957.03
2022-10-18T06:37:45.837Z,96958.56
2022-10-18T06:40:12.327Z,96960.34
2022-10-18T06:42:38.730Z,96955.75
2022-10-18T06:45:05.384Z,96956.56
2022-10-18T06:47:31.764Z,96963.50
2022-10-18T06:49:58.139Z,96966.94
2022-10-18T06:52:25.740Z,96967.94
2022-10-18T06:54:52.756Z,96965.97
2022-10-18T06:57:20.031Z,96959.84
2022-10-18T06:59:46.453Z,96962.31
2022-10-18T07:02:17.337Z,96965.63
2022-10-18T07:04:43.901Z,96958.88
2022-10-18T07:07:10.393Z,96967.97
2022-10-18T07:09:36.916Z,96957.91
2022-10-18T07:12:03.393Z,96970.25
2022-10-18T07:14:29.758Z,96954.63
2022-10-18T07:16:58.464Z,96954.44
2022-10-18T07:19:24.814Z,96958.72
2022-10-18T07:21:51.173Z,96953.44
2022-10-18T07:24:17.575Z,96952.47
2022-10-18T07:26:44.010Z,96957.41
2022-10-18T07:29:11.824Z,96956.41
2022-10-18T07:31:39.152Z,96950.66
2022-10-18T07:34:06.303Z,96947.69
2022-10-18T07:36:32.728Z,96944.06
2022-10-18T07:38:59.706Z,96942.91
2022-10-18T07:41:26.220Z,96938.31
2022-10-18T07:43:52.936Z,96942.25
2022-10-18T07:46:20.180Z,96938.63
2022-10-18T07:48:46.577Z,96937.47
2022-10-18T07:51:13.058Z,96941.25
2022-10-18T07:53:39.624Z,96933.00
2022-10-18T07:56:09.439Z,96933.34
2022-10-18T07:58:36.355Z,96923.09
2022-10-18T08:01:06.513Z,96933.63
2022-10-18T08:03:32.989Z,96926.03
2022-10-18T08:05:59.488Z,96920.44
2022-10-18T08:08:26.040Z,96917.13
2022-10-18T08:10:52.730Z,96909.34
2022-10-18T08:13:19.409Z,96913.78
2022-10-18T08:15:45.807Z,96911.47
2022-10-18T08:18:12.231Z,96902.53
2022-10-18T08:20:42.474Z,96897.38
2022-10-18T08:23:08.997Z,96892.25
2022-10-18T08:28:02.731Z,96895.78
2022-10-18T08:30:29.127Z,96887.03
2022-10-18T08:32:55.545Z,96892.47
2022-10-18T08:35:21.997Z,96884.47
2022-10-18T08:37:48.589Z,96881.78
2022-10-18T08:40:15.633Z,96878.28
2022-10-18T08:42:41.993Z,96869.13
2022-10-18T08:45:17.749Z,96869.06
2022-10-18T08:47:57.862Z,96862.53
2022-10-18T08:50:27.095Z,96865.94
2022-10-18T08:52:58.532Z,96860.38
2022-10-18T08:55:31.000Z,96853.19
2022-10-18T08:57:58.171Z,96847.81
2022-10-18T09:00:25.567Z,96849.41
2022-10-18T09:02:56.273Z,96844.00
2022-10-18T09:05:25.194Z,96843.59
2022-10-18T09:07:57.414Z,96844.13
2022-10-18T09:10:33.923Z,96840.63
2022-10-18T09:13:16.921Z,96828.56
2022-10-18T09:16:02.771Z,96825.72
2022-10-18T09:18:41.367Z,96828.53
2022-10-18T09:21:18.854Z,96820.13
2022-10-18T09:23:54.380Z,96820.28
2022-10-18T09:26:21.991Z,96820.41
2022-10-18T09:29:07.016Z,96810.94
2022-10-18T09:31:39.249Z,96806.38
2022-10-18T09:34:10.298Z,96804.47
2022-10-18T09:36:38.665Z,96802.56
2022-10-18T09:39:09.686Z,96802.66
2022-10-18T09:41:36.039Z,96798.25
2022-10-18T09:44:06.830Z,96788.72
2022-10-18T09:46:37.223Z,96789.63
2022-10-18T09:49:22.380Z,96782.56
2022-10-18T09:51:49.799Z,96783.03
2022-10-18T09:54:22.083Z,96774.09
2022-10-18T09:56:48.543Z,96768.81
2022-10-18T09:59:33.718Z,96767.84
2022-10-18T10:02:00.122Z,96771.78
2022-10-18T10:04:26.812Z,96768.09
2022-10-18T10:06:54.245Z,96764.84
2022-10-18T10:09:29.424Z,96758.72
2022-10-18T10:11:56.536Z,96748.88
2022-10-18T10:14:27.472Z,96741.91
2022-10-18T10:16:53.852Z,96732.88
2022-10-18T10:19:23.592Z,96734.91
2022-10-18T10:21:51.518Z,96734.84
2022-10-18T10:24:20.970Z,96728.81
2022-10-18T10:26:47.473Z,96729.19
2022-10-18T10:29:44.119Z,96721.31
2022-10-18T10:32:12.471Z,96713.69
2022-10-18T10:34:42.341Z,96708.06
2022-10-18T10:37:23.049Z,96706.22
2022-10-18T10:40:17.818Z,96697.00
2022-10-18T10:43:00.002Z,96691.97
2022-10-18T10:45:55.353Z,96686.22
2022-10-18T10:48:21.847Z,96678.91
2022-10-18T10:50:55.413Z,96677.00
2022-10-18T10:53:34.391Z,96668.81
2022-10-18T10:56:01.696Z,96665.59
2022-10-18T10:58:29.538Z,96659.97
2022-10-18T11:00:56.565Z,96664.44
2022-10-18T11:03:30.165Z,96656.47
2022-10-18T11:05:58.239Z,96656.88
2022-10-18T11:08:27.191Z,96658.56
2022-10-18T11:10:56.373Z,96653.50
2022-10-18T11:13:28.296Z,96651.38
2022-10-18T11:16:01.692Z,96646.75
2022-10-18T11:18:31.428Z,96641.31
2022-10-18T11:21:07.891Z,96636.31
2022-10-18T11:23:35.482Z,96637.63
2022-10-18T11:26:04.860Z,96637.28
2022-10-18T11:28:50.176Z,96630.78
2022-10-18T11:31:35.366Z,96619.41
2022-10-18T11:34:20.590Z,96624.56
2022-10-18T11:37:27.007Z,96609.19
2022-10-18T11:40:12.822Z,96597.06
2022-10-18T11:42:48.068Z,96601.72
2022-10-18T11:45:14.518Z,96596.38
2022-10-18T11:47:45.571Z,96594.16
2022-10-18T11:50:26.339Z,96591.81
2022-10-18T11:53:01.861Z,96589.00
2022-10-18T11:55:43.866Z,96583.19
2022-10-18T11:58:28.875Z,96574.66
2022-10-18T12:00:58.875Z,96571.84
2022-10-18T12:03:25.293Z,96564.38
2022-10-18T12:05:52.931Z,96570.44
2022-10-18T12:08:22.260Z,96571.00
2022-10-18T12:11:09.251Z,96559.91
2022-10-18T12:13:54.758Z,96555.94
2022-10-18T12:16:38.897Z,96551.75
2022-10-18T12:19:16.294Z,96549.66
2022-10-18T12:21:43.015Z,96546.56
2022-10-18T12:24:13.542Z,96547.97
2022-10-18T12:26:40.309Z,96546.81
2022-10-18T12:29:21.199Z,96539.94
2022-10-18T12:31:56.783Z,96538.03
2022-10-18T12:34:23.513Z,96527.66
2022-10-18T12:36:49.857Z,96532.56
2022-10-18T12:39:29.129Z,96527.53
2022-10-18T12:42:05.363Z,96524.09
2022-10-18T12:44:33.555Z,96523.03
2022-10-18T12:47:04.209Z,96516.63
2022-10-18T12:49:32.489Z,96521.59
2022-10-18T12:52:00.371Z,96506.91
2022-10-18T12:54:28.725Z,96516.56
2022-10-18T12:56:55.413Z,96513.06
2022-10-18T12:59:26.336Z,96513.88
2022-10-18T13:01:55.582Z,96515.50
2022-10-18T13:04:27.897Z,96509.88
2022-10-18T13:06:57.294Z,96505.09
2022-10-18T13:09:37.203Z,96498.59
2022-10-18T13:12:09.668Z,96500.78
2022-10-18T13:15:05.898Z,96506.91
2022-10-18T13:17:47.956Z,96497.53
2022-10-18T13:20:25.970Z,96497.78
2022-10-18T13:23:05.187Z,96494.53
2022-10-18T13:25:50.152Z,96489.97
2022-10-18T13:28:22.564Z,96489.25
2022-10-18T13:31:07.781Z,96488.19
2022-10-18T13:33:35.578Z,96494.84
2022-10-18T13:36:01.989Z,96483.63
2022-10-18T13:38:33.975Z,96483.88
2022-10-18T13:41:04.704Z,96495.44
2022-10-18T13:43:52.445Z,96493.78
2022-10-18T13:46:19.708Z,96474.78
2022-10-18T13:48:50.120Z,96483.31
2022-10-18T13:51:16.473Z,96482.50
2022-10-18T13:53:55.369Z,96478.25
2022-10-18T13:56:45.119Z,96469.97
2022-10-18T13:59:23.765Z,96463.00
2022-10-18T14:02:05.650Z,96469.09
2022-10-18T14:04:32.069Z,96466.88
2022-10-18T14:07:02.242Z,96466.88
2022-10-18T14:09:43.811Z,96460.72
2022-10-18T14:12:14.189Z,96462.00
2022-10-18T14:14:46.214Z,96453.13
2022-10-18T14:17:31.536Z,96462.00
2022-10-18T14:20:07.134Z,96458.75
2022-10-18T14:22:41.054Z,96450.03
2022-10-18T14:25:36.930Z,96450.03
2022-10-18T14:28:11.363Z,96440.22
2022-10-18T14:30:57.977Z,96445.38
2022-10-18T14:33:25.575Z,96444.94
2022-10-18T14:36:03.433Z,96447.28
2022-10-18T14:38:30.161Z,96449.06
2022-10-18T14:41:25.663Z,96445.47
2022-10-18T14:43:53.226Z,96446.56
2022-10-18T14:46:27.275Z,96438.34
2022-10-18T14:48:55.489Z,96434.06
2022-10-18T14:51:22.090Z,96432.47
2022-10-18T14:53:49.018Z,96426.56
2022-10-18T14:56:26.542Z,96425.97
2022-10-18T14:58:54.017Z,96419.38
2022-10-18T15:01:21.471Z,96419.72
2022-10-18T15:03:48.212Z,96410.91
2022-10-18T15:06:19.369Z,96395.56
2022-10-18T15:08:47.766Z,96398.59
2022-10-18T15:11:15.345Z,96396.38
2022-10-18T15:13:46.672Z,96391.25
2022-10-18T15:16:18.065Z,96388.47
2022-10-18T15:18:48.996Z,96396.84
2022-10-18T15:21:21.551Z,96401.81
2022-10-18T15:23:48.363Z,96401.97
2022-10-18T15:26:16.313Z,96399.16
2022-10-18T15:28:51.505Z,96394.75
2022-10-18T15:31:25.196Z,96388.69
2022-10-18T15:33:52.468Z,96393.31
2022-10-18T15:36:29.556Z,96389.78
2022-10-18T15:39:14.617Z,96398.81
2022-10-18T15:41:48.854Z,96396.09
2022-10-18T15:44:21.262Z,96397.59
2022-10-18T15:46:48.592Z,96402.34
2022-10-18T15:49:24.410Z,96402.81
2022-10-18T15:51:55.665Z,96410.72
2022-10-18T15:54:31.240Z,96409.59
2022-10-18T15:56:58.049Z,96408.84
2022-10-18T15:59:26.470Z,96411.78
2022-10-18T16:01:53.043Z,96394.47
2022-10-18T16:04:23.004Z,96389.44
2022-10-18T16:06:49.405Z,96400.56
2022-10-18T16:09:16.872Z,96391.44
2022-10-18T16:11:43.651Z,96388.03
2022-10-18T16:14:10.082Z,96383.56
2022-10-18T16:16:36.476Z,96391.84
2022-10-18T16:19:03.619Z,96389.66
2022-10-18T16:21:31.663Z,96387.88
2022-10-18T16:23:58.194Z,96374.41
2022-10-18T16:26:24.996Z,96372.81
2022-10-18T16:28:51.484Z,96371.00
2022-10-18T16:31:19.672Z,96371.50
2022-10-18T16:33:46.337Z,96374.16
2022-10-18T16:36:32.074Z,96373.41
2022-10-18T16:39:01.172Z,96381.63
2022-10-18T16:41:27.848Z,96376.34
2022-10-18T16:43:54.318Z,96377.00
2022-10-18T16:46:27.453Z,96388.31
2022-10-18T16:48:54.238Z,96405.94
2022-10-18T16:51:20.635Z,96404.75
2022-10-18T16:53:47.479Z,96407.63
2022-10-18T16:56:21.351Z,96400.28
2022-10-18T16:58:48.231Z,96415.25
2022-10-18T17:01:16.660Z,96426.69
2022-10-18T17:03:43.670Z,96420.78
2022-10-18T17:06:30.587Z,96414.69
2022-10-18T17:08:57.354Z,96423.09
2022-10-18T17:11:24.718Z,96427.59
2022-10-18T17:13:51.094Z,96424.97
2022-10-18T17:19:01.074Z,96426.59
2022-10-18T17:21:28.268Z,96426.19
2022-10-18T17:23:54.703Z,96426.00
2022-10-18T17:26:30.538Z,96416.22
2022-10-18T17:29:01.805Z,96414.75
2022-10-18T17:31:29.142Z,96421.06
2022-10-18T17:33:55.566Z,96420.06
2022-10-18T17:36:22.188Z,96419.66
2022-10-18T17:38:52.023Z,96417.22
2022-10-18T17:41:18.477Z,96419.88
2022-10-18T17:43:44.858Z,96421.09
2022-10-18T17:46:14.542Z,96424.16
2022-10-18T17:48:41.414Z,96431.91
2022-10-18T17:51:08.642Z,96428.22
2022-10-18T17:53:35.124Z,96426.97
2022-10-18T17:56:02.976Z,96426.56
2022-10-18T17:58:29.722Z,96416.34
2022-10-18T18:00:56.082Z,96420.25
2022-10-18T18:03:22.489Z,96421.88
2022-10-18T18:05:49.028Z,96423.28
2022-10-18T18:08:15.453Z,96420.03
2022-10-18T18:10:42.073Z,96423.28
2022-10-18T18:13:08.486Z,96415.31
2022-10-18T18:15:35.037Z,96412.44
2022-10-18T18:18:01.479Z,96417.53
2022-10-18T18:20:27.930Z,96410.97
2022-10-18T18:22:54.339Z,96415.06
2022-10-18T18:25:20.729Z,96405.25
2022-10-18T18:27:47.120Z,96404.03
2022-10-18T18:30:14.455Z,96399.09
2022-10-18T18:32:40.818Z,96402.38
2022-10-18T18:35:07.409Z,96402.78
2022-10-18T18:37:33.925Z,96406.81
2022-10-18T18:40:00.329Z,96404.56
2022-10-18T18:42:26.754Z,96400.09
2022-10-18T18:44:53.187Z,96397.81
2022-10-18T18:47:21.708Z,96392.91
2022-10-18T18:49:48.467Z,96402.28
2022-10-18T18:52:14.890Z,96396.56
2022-10-18T18:54:41.340Z,96402.44
2022-10-18T18:57:07.804Z,96398.31
2022-10-18T18:59:34.336Z,96403.19
2022-10-18T19:02:00.760Z,96400.09
2022-10-18T19:04:29.004Z,96400.50
2022-10-18T19:06:55.408Z,96400.44
2022-10-18T19:09:22.884Z,96406.53
2022-10-18T19:11:50.444Z,96399.97
2022-10-18T19:14:16.895Z,96406.69
2022-10-18T19:16:46.630Z,96403.63
2022-10-18T19:19:14.578Z,96403.38
2022-10-18T19:21:42.539Z,96401.09
2022-10-18T19:24:08.941Z,96404.78
2022-10-18T19:26:38.609Z,96402.31
2022-10-18T19:29:07.053Z,96406.00
2022-10-18T19:31:35.010Z,96400.88
2022-10-18T19:34:05.256Z,96405.56
2022-10-18T19:36:31.776Z,96401.84
2022-10-18T19:38:58.197Z,96405.69
2022-10-18T19:43:52.337Z,96403.88
2022-10-18T19:46:18.819Z,96402.44
2022-10-18T19:48:45.264Z,96394.84
2022-10-18T19:51:14.407Z,96404.22
2022-10-18T19:53:44.476Z,96399.28
2022-10-18T19:56:16.318Z,96401.94
2022-10-18T19:58:42.714Z,96408.25
2022-10-18T20:01:09.129Z,96405.59
2022-10-18T20:03:35.695Z,96404.16
2022-10-18T20:06:02.730Z,96399.69
2022-10-18T20:08:30.934Z,96398.06
2022-10-18T20:11:01.232Z,96393.75
2022-10-18T20:13:27.651Z,96393.16
2022-10-18T20:15:54.129Z,96385.56
2022-10-18T20:18:20.738Z,96393.91
2022-10-18T20:20:48.397Z,96404.03
2022-10-18T20:23:15.898Z,96405.63
2022-10-18T20:25:42.297Z,96408.03
2022-10-18T20:28:08.671Z,96394.78
2022-10-18T20:30:35.054Z,96403.56
2022-10-18T20:33:01.480Z,96401.75
2022-10-18T20:35:27.906Z,96406.00
2022-10-18T20:37:54.265Z,96398.50
2022-10-18T20:40:20.633Z,96403.16
2022-10-18T20:42:47.170Z,96398.72
2022-10-18T20:45:13.559Z,96397.88
2022-10-18T20:47:39.946Z,96389.75
2022-10-18T20:50:06.613Z,96393.03
2022-10-18T20:52:33.000Z,96394.69
2022-10-18T20:54:59.360Z,96381.06
2022-10-18T20:57:25.742Z,96374.38
2022-10-18T20:59:52.141Z,96377.28
2022-10-18T21:02:18.647Z,96374.00
2022-10-18T21:04:45.069Z,96361.41
2022-10-18T21:07:11.569Z,96358.56
2022-10-18T21:09:37.961Z,96362.44
2022-10-18T21:12:04.539Z,96359.97
2022-10-18T21:14:31.132Z,96359.97
2022-10-18T21:16:57.549Z,96367.53
2022-10-18T21:19:25.300Z,96371.44
2022-10-18T21:21:54.365Z,96370.25
2022-10-18T21:24:21.440Z,96369.03
2022-10-18T21:26:48.283Z,96368.81
2022-10-18T21:29:19.330Z,96371.91
2022-10-18T21:31:48.389Z,96368.88
2022-10-18T21:34:16.413Z,96368.50
2022-10-18T21:36:43.786Z,96374.03
2022-10-18T21:39:14.926Z,96376.47
2022-10-18T21:41:42.011Z,96368.34
2022-10-18T21:44:10.711Z,96358.16
2022-10-18T21:46:39.198Z,96358.75
2022-10-18T21:49:06.348Z,96354.66
2022-10-18T21:51:32.778Z,96348.53
2022-10-18T21:53:59.212Z,96355.50
2022-10-18T21:56:27.231Z,96348.53
2022-10-18T21:58:53.762Z,96352.66
2022-10-18T22:01:21.430Z,96362.41
2022-10-18T22:03:48.568Z,96351.63
2022-10-18T22:06:16.588Z,96360.81
2022-10-18T22:08:48.810Z,96353.44
2022-10-18T22:11:16.011Z,96346.13
2022-10-18T22:13:43.038Z,96358.34
2022-10-18T22:16:11.369Z,96356.28
2022-10-18T22:18:37.753Z,96340.84
2022-10-18T22:21:05.943Z,96340.03
2022-10-18T22:23:33.210Z,96338.81
2022-10-18T22:26:04.229Z,96342.50
2022-10-18T22:28:30.629Z,96348.22
2022-10-18T22:30:57.011Z,96355.97
2022-10-18T22:33:23.411Z,96364.09
2022-10-18T22:35:50.157Z,96349.22
2022-10-18T22:38:16.555Z,96346.22
2022-10-18T22:40:42.982Z,96347.00
2022-10-18T22:43:09.388Z,96349.09
2022-10-18T22:45:35.750Z,96352.53
2022-10-18T22:48:02.107Z,96348.69
2022-10-18T22:50:28.532Z,96364.63
2022-10-18T22:52:54.894Z,96367.47
2022-10-18T22:55:21.283Z,96366.22
2022-10-18T22:57:47.641Z,96365.44
2022-10-18T23:00:14.340Z,96369.47
2022-10-18T23:02:40.772Z,96375.41
2022-10-18T23:05:07.391Z,96384.38
2022-10-18T23:07:33.770Z,96372.34
2022-10-18T23:10:00.178Z,96370.97
2022-10-18T23:12:26.579Z,96375.22
2022-10-18T23:14:52.945Z,96379.34
2022-10-18T23:17:19.320Z,96382.19
2022-10-18T23:19:45.684Z,96391.19
2022-10-18T23:22:15.050Z,96390.41
2022-10-18T23:24:41.412Z,96385.53
2022-10-18T23:27:08.216Z,96389.41
2022-10-18T23:29:34.595Z,96391.69
2022-10-18T23:32:00.948Z,96393.72
2022-10-18T23:34:27.312Z,96393.31
2022-10-18T23:36:53.687Z,96381.50
2022-10-18T23:39:20.075Z,96383.75
2022-10-18T23:41:46.445Z,96378.25
2022-10-18T23:44:12.857Z,96369.69
2022-10-18T23:46:39.220Z,96378.47
2022-10-18T23:49:05.789Z,96369.28
2022-10-18T23:51:32.182Z,96367.03
2022-10-18T23:53:58.582Z,96378.47
2022-10-18T23:56:24.965Z,96376.44
2022-10-18T23:58:51.410Z,96364.81
